Time;durP1;ratioP1;P1;durP2;ratioP2;P2;SDS_P1;SDS_P2;PMS_P1;PMS_P2;Temp;Humidity;BMP_temperature;BMP_pressure;BME280_temperature;BME280_humidity;BME280_pressure;Samples;Min_cycle;Max_cycle;Signal;HPM_P1;HPM_P2
2021/04/09 00:02:21;;;;;;;;;;;;;;;1.61;100.00;101177.63;5090869;28;19924;-71
2021/04/09 00:04:47;;;;;;;;;;;;;;;1.59;100.00;101182.16;5091296;28;19924;-71
2021/04/09 00:07:13;;;;;;;;;;;;;;;1.56;100.00;101171.56;5090952;28;19928;-71
2021/04/09 00:09:39;;;;;;;;;;;;;;;1.53;100.00;101177.06;5073319;28;19990;-72
2021/04/09 00:12:05;;;;;;;;;;;;;;;1.53;100.00;101175.22;5091077;28;19979;-71
2021/04/09 00:14:32;;;;;;;;;;;;;;;1.55;100.00;101177.84;5073122;28;20418;-71
2021/04/09 00:16:57;;;;;;;;;;;;;;;1.51;100.00;101171.75;5091100;28;19977;-71
2021/04/09 00:19:24;;;;;;;;;;;;;;;1.43;100.00;101169.34;5090530;28;20313;-71
2021/04/09 00:21:50;;;;;;;;;;;;;;;1.38;100.00;101167.75;5090898;28;20387;-71
2021/04/09 00:24:16;;;;;;;;;;;;;;;1.37;100.00;101169.56;5090867;28;19934;-71
2021/04/09 00:26:42;;;;;;;;;;;;;;;1.35;100.00;101163.41;5090955;28;20310;-71
2021/04/09 00:29:07;;;;;;;;;;;;;;;1.32;100.00;101163.50;5091061;28;19924;-71
2021/04/09 00:31:35;;;;;;;;;;;;;;;1.30;100.00;101160.88;5090375;28;19935;-71
2021/04/09 00:34:01;;;;;;;;;;;;;;;1.28;100.00;101153.84;5073189;28;19924;-71
2021/04/09 00:36:27;;;;;;;;;;;;;;;1.21;100.00;101155.00;5090387;28;19985;-72
2021/04/09 00:38:53;;;;;;;;;;;;;;;1.11;100.00;101147.28;5091154;28;20272;-71
2021/04/09 00:41:18;;;;;;;;;;;;;;;1.02;100.00;101136.91;5090913;28;20027;-71
2021/04/09 00:43:44;;;;;;;;;;;;;;;0.93;100.00;101146.13;5090370;28;19924;-71
2021/04/09 00:46:10;;;;;;;;;;;;;;;0.81;100.00;101134.03;5091024;28;20011;-71
2021/04/09 00:48:37;;;;;;;;;;;;;;;0.75;100.00;101136.94;5094056;28;19968;-71
2021/04/09 00:51:04;;;;;;;;;;;;;;;0.71;100.00;101127.28;5076798;28;19978;-72
2021/04/09 00:53:30;;;;;;;;;;;;;;;0.66;100.00;101121.22;5093912;28;19924;-71
2021/04/09 00:55:56;;;;;;;;;;;;;;;0.68;100.00;101121.16;5094156;28;19934;-71
2021/04/09 00:58:22;;;;;;;;;;;;;;;0.64;100.00;101115.03;5094847;28;20314;-72
2021/04/09 01:00:48;;;;;;;;;;;;;;;0.63;100.00;101115.97;5094288;28;19924;-71
2021/04/09 01:03:14;;;;;;;;;;;;;;;0.62;100.00;101111.56;5094754;28;19975;-71
2021/04/09 01:05:41;;;;;;;;;;;;;;;0.60;100.00;101106.28;5094781;28;19923;-71
2021/04/09 01:08:07;;;;;;;;;;;;;;;0.59;100.00;101103.63;5094742;28;20383;-71
2021/04/09 01:10:33;;;;;;;;;;;;;;;0.56;100.00;101098.38;5094986;28;20402;-72
2021/04/09 01:12:59;;;;;;;;;;;;;;;0.61;100.00;101096.44;5097645;28;19924;-71
2021/04/09 01:15:25;;;;;;;;;;;;;;;0.62;100.00;101090.19;5101438;28;19924;-72
2021/04/09 01:17:55;;;;;;;;;;;;;;;0.55;100.00;101096.63;5100592;28;20310;-71
2021/04/09 01:20:37;;;;;;;;;;;;;;;0.50;100.00;101083.44;5101613;28;19924;-72
2021/04/09 01:23:12;;;;;;;;;;;;;;;0.45;100.00;101080.91;5100323;28;19924;-72
2021/04/09 01:25:57;;;;;;;;;;;;;;;0.40;100.00;101084.66;5099535;28;19924;-71
2021/04/09 01:28:25;;;;;;;;;;;;;;;0.36;100.00;101072.34;5094116;28;19924;-71
2021/04/09 01:30:58;;;;;;;;;;;;;;;0.31;100.00;101068.03;5093652;28;19982;-72
2021/04/09 01:33:27;;;;;;;;;;;;;;;0.23;100.00;101061.19;5094112;28;19993;-71
2021/04/09 01:35:56;;;;;;;;;;;;;;;0.19;100.00;101054.19;5093783;28;19932;-71
2021/04/09 01:38:23;;;;;;;;;;;;;;;0.25;100.00;101054.00;5094044;28;19964;-71
2021/04/09 01:40:49;;;;;;;;;;;;;;;0.31;100.00;101045.81;5093958;28;20363;-71
2021/04/09 01:43:17;;;;;;;;;;;;;;;0.26;100.00;101037.94;5093762;28;19978;-70
2021/04/09 01:45:43;;;;;;;;;;;;;;;0.27;100.00;101038.81;5093654;28;20045;-71
2021/04/09 01:48:10;;;;;;;;;;;;;;;0.29;100.00;101037.81;5093556;28;19993;-71
2021/04/09 01:50:37;;;;;;;;;;;;;;;0.37;100.00;101029.56;5093386;28;19928;-71
2021/04/09 01:53:04;;;;;;;;;;;;;;;0.45;100.00;101032.84;5093575;28;19924;-71
2021/04/09 01:55:32;;;;;;;;;;;;;;;0.45;100.00;101030.16;5093211;28;19927;-70
2021/04/09 01:57:58;;;;;;;;;;;;;;;0.45;100.00;101026.63;5075275;28;19931;-71
2021/04/09 02:00:25;;;;;;;;;;;;;;;0.40;100.00;101021.47;5092635;28;19977;-71
2021/04/09 02:02:52;;;;;;;;;;;;;;;0.37;100.00;101012.66;5093475;28;19928;-71
2021/04/09 02:05:18;;;;;;;;;;;;;;;0.34;100.00;101019.00;5093198;28;19928;-71
2021/04/09 02:07:46;;;;;;;;;;;;;;;0.35;100.00;101018.06;5093267;28;19961;-71
2021/04/09 02:10:12;;;;;;;;;;;;;;;0.33;100.00;101017.22;5093550;28;19954;-71
2021/04/09 02:12:39;;;;;;;;;;;;;;;0.34;100.00;101008.31;5092639;28;20303;-72
2021/04/09 02:15:07;;;;;;;;;;;;;;;0.36;100.00;101000.22;5092810;28;19934;-71
2021/04/09 02:17:34;;;;;;;;;;;;;;;0.35;100.00;100999.38;5092895;28;20383;-71
2021/04/09 02:20:00;;;;;;;;;;;;;;;0.33;100.00;100993.19;5075296;28;19978;-71
2021/04/09 02:22:26;;;;;;;;;;;;;;;0.35;100.00;100990.47;5093031;28;19972;-71
2021/04/09 02:24:55;;;;;;;;;;;;;;;0.34;100.00;100984.25;5074424;28;19924;-70
2021/04/09 02:27:21;;;;;;;;;;;;;;;0.30;100.00;100986.16;5093339;28;20382;-71
2021/04/09 02:29:47;;;;;;;;;;;;;;;0.30;100.00;100978.16;5092698;28;19924;-72
2021/04/09 02:32:14;;;;;;;;;;;;;;;0.28;100.00;100981.78;5092608;28;19970;-71
2021/04/09 02:34:39;;;;;;;;;;;;;;;0.24;100.00;100977.47;5074755;28;19963;-71
2021/04/09 02:37:05;;;;;;;;;;;;;;;0.24;100.00;100977.47;5092650;28;19924;-71
2021/04/09 02:39:33;;;;;;;;;;;;;;;0.25;100.00;100976.56;5092831;28;19947;-71
2021/04/09 02:42:03;;;;;;;;;;;;;;;0.22;100.00;100966.00;5092598;28;20398;-71
2021/04/09 02:44:28;;;;;;;;;;;;;;;0.20;100.00;100965.16;5092533;28;20383;-71
2021/04/09 02:46:58;;;;;;;;;;;;;;;0.19;100.00;100960.75;5074396;28;19939;-71
2021/04/09 02:49:26;;;;;;;;;;;;;;;0.15;100.00;100962.66;5092672;28;19954;-71
2021/04/09 02:51:54;;;;;;;;;;;;;;;0.14;100.00;100958.25;5092515;28;19928;-71
2021/04/09 02:54:20;;;;;;;;;;;;;;;0.12;100.00;100960.97;5092304;28;19944;-71
2021/04/09 02:56:47;;;;;;;;;;;;;;;0.12;100.00;100960.97;5092138;28;20017;-71
2021/04/09 02:59:14;;;;;;;;;;;;;;;0.13;100.00;100946.72;5092256;28;19950;-71
2021/04/09 03:01:41;;;;;;;;;;;;;;;0.14;100.00;100943.09;5073923;28;19931;-71
2021/04/09 03:04:07;;;;;;;;;;;;;;;0.13;100.00;100951.16;5074291;28;20019;-71
2021/04/09 03:06:35;;;;;;;;;;;;;;;0.10;100.00;100944.13;5091904;28;19924;-71
2021/04/09 03:09:01;;;;;;;;;;;;;;;0.08;100.00;100937.09;5092377;28;19928;-71
2021/04/09 03:11:27;;;;;;;;;;;;;;;0.05;100.00;100932.72;5091724;28;19959;-71
2021/04/09 03:13:53;;;;;;;;;;;;;;;0.03;100.00;100931.03;5092329;28;20417;-71
2021/04/09 03:16:21;;;;;;;;;;;;;;;0.02;100.00;100923.97;5091822;28;19977;-71
2021/04/09 03:18:47;;;;;;;;;;;;;;;0.00;100.00;100918.69;5091882;28;19978;-71
2021/04/09 03:21:13;;;;;;;;;;;;;;;-0.01;100.00;100912.47;5092140;28;20023;-71
2021/04/09 03:23:39;;;;;;;;;;;;;;;-0.01;100.00;100912.47;5073271;28;20448;-71
2021/04/09 03:26:05;;;;;;;;;;;;;;;-0.08;100.00;100913.59;5092047;28;19928;-71
2021/04/09 03:28:30;;;;;;;;;;;;;;;-0.09;100.00;100919.00;5091679;28;20025;-71
2021/04/09 03:30:56;;;;;;;;;;;;;;;-0.08;100.00;100915.38;5091823;28;19928;-71
2021/04/09 03:33:24;;;;;;;;;;;;;;;-0.09;100.00;100914.53;5091790;28;19924;-71
2021/04/09 03:35:50;;;;;;;;;;;;;;;-0.15;100.00;100913.84;5090971;28;19935;-71
2021/04/09 03:38:17;;;;;;;;;;;;;;;-0.17;100.00;100908.56;5092046;28;19927;-71
2021/04/09 03:40:43;;;;;;;;;;;;;;;-0.16;100.00;100915.66;5091476;28;19950;-71
2021/04/09 03:43:09;;;;;;;;;;;;;;;-0.20;100.00;100911.31;5091433;28;20540;-71
2021/04/09 03:45:35;;;;;;;;;;;;;;;-0.22;100.00;100906.03;5091070;28;19924;-71
2021/04/09 03:48:01;;;;;;;;;;;;;;;-0.22;100.00;100908.72;5091288;28;19924;-71
2021/04/09 03:50:28;;;;;;;;;;;;;;;-0.30;100.00;100905.44;5091685;28;19924;-71
2021/04/09 03:52:53;;;;;;;;;;;;;;;-0.35;100.00;100896.72;5090998;28;19924;-71
2021/04/09 03:55:19;;;;;;;;;;;;;;;-0.39;100.00;100892.41;5091193;28;20014;-70
2021/04/09 03:57:45;;;;;;;;;;;;;;;-0.41;100.00;100891.59;5091316;28;19981;-71
2021/04/09 04:00:12;;;;;;;;;;;;;;;-0.40;100.00;100887.97;5091195;28;19952;-71
2021/04/09 04:02:38;;;;;;;;;;;;;;;-0.47;100.00;100887.31;5091128;28;19924;-71
2021/04/09 04:05:04;;;;;;;;;;;;;;;-0.48;100.00;100879.38;5091043;28;19927;-71
2021/04/09 04:07:31;;;;;;;;;;;;;;;-0.53;100.00;100874.19;5091092;28;19924;-71
2021/04/09 04:09:57;;;;;;;;;;;;;;;-0.57;100.00;100880.56;5091080;28;19932;-71
2021/04/09 04:12:22;;;;;;;;;;;;;;;-0.59;100.00;100871.72;5091017;28;19924;-71
2021/04/09 04:14:48;;;;;;;;;;;;;;;-0.54;100.00;100870.63;5091450;28;19967;-71
2021/04/09 04:17:14;;;;;;;;;;;;;;;-0.48;100.00;100871.34;5090973;28;19931;-71
2021/04/09 04:19:40;;;;;;;;;;;;;;;-0.44;100.00;100865.91;5091025;28;19924;-71
2021/04/09 04:22:06;;;;;;;;;;;;;;;-0.49;100.00;100864.28;5090411;28;19951;-71
2021/04/09 04:24:33;;;;;;;;;;;;;;;-0.55;100.00;100866.25;5090933;28;19924;-71
2021/04/09 04:26:59;;;;;;;;;;;;;;;-0.54;100.00;100859.09;5090856;28;19964;-71
2021/04/09 04:29:24;;;;;;;;;;;;;;;-0.58;100.00;100860.13;5090933;28;20302;-71
2021/04/09 04:31:50;;;;;;;;;;;;;;;-0.49;100.00;100874.94;5090150;28;19979;-71
2021/04/09 04:34:16;;;;;;;;;;;;;;;-0.46;100.00;100861.53;5090178;28;19932;-71
2021/04/09 04:36:42;;;;;;;;;;;;;;;-0.41;100.00;100854.25;5085848;28;19970;-71
2021/04/09 04:39:08;;;;;;;;;;;;;;;-0.41;100.00;100860.44;5090839;28;19924;-71
2021/04/09 04:41:35;;;;;;;;;;;;;;;-0.36;100.00;100865.59;5090581;28;19968;-71
2021/04/09 04:44:01;;;;;;;;;;;;;;;-0.29;100.00;100863.63;5070567;28;19935;-71
2021/04/09 04:46:27;;;;;;;;;;;;;;;-0.26;100.00;100861.72;5067265;28;19964;-71
2021/04/09 04:48:52;;;;;;;;;;;;;;;-0.21;100.00;100859.78;5089192;28;19928;-71
2021/04/09 04:51:18;;;;;;;;;;;;;;;-0.17;100.00;100855.22;5090877;28;19931;-71
2021/04/09 04:53:44;;;;;;;;;;;;;;;-0.16;100.00;100856.97;5088972;28;19932;-71
2021/04/09 04:56:10;;;;;;;;;;;;;;;-0.09;100.00;100857.63;5090313;28;19924;-71
2021/04/09 04:58:37;;;;;;;;;;;;;;;-0.04;100.00;100851.19;5090358;28;19935;-72
2021/04/09 05:01:03;;;;;;;;;;;;;;;0.02;100.00;100851.91;5072089;28;19932;-71
2021/04/09 05:03:28;;;;;;;;;;;;;;;0.08;100.00;100847.22;5090442;28;19924;-71
2021/04/09 05:05:54;;;;;;;;;;;;;;;0.18;100.00;100846.88;5089685;28;20028;-71
2021/04/09 05:08:20;;;;;;;;;;;;;;;0.24;100.00;100849.31;5090530;28;19931;-71
2021/04/09 05:10:46;;;;;;;;;;;;;;;0.29;100.00;100844.69;5090342;28;20023;-71
2021/04/09 05:13:12;;;;;;;;;;;;;;;0.37;100.00;100839.94;5090315;28;20372;-71
2021/04/09 05:15:39;;;;;;;;;;;;;;;0.44;100.00;100837.91;5089360;28;19981;-71
2021/04/09 05:18:05;;;;;;;;;;;;;;;0.53;100.00;100828.69;5089877;28;20020;-71
2021/04/09 05:20:31;;;;;;;;;;;;;;;0.63;100.00;100830.09;5090125;28;20310;-71
2021/04/09 05:22:57;;;;;;;;;;;;;;;0.73;100.00;100826.09;5072120;28;19931;-71
2021/04/09 05:25:22;;;;;;;;;;;;;;;0.87;100.00;100835.38;5088217;28;19924;-70
2021/04/09 05:27:48;;;;;;;;;;;;;;;1.03;100.00;100831.19;5089332;28;19935;-70
2021/04/09 05:30:15;;;;;;;;;;;;;;;1.26;100.00;100827.59;5090062;28;19930;-70
2021/04/09 05:32:41;;;;;;;;;;;;;;;1.63;100.00;100826.06;5090086;28;19924;-71
2021/04/09 05:35:08;;;;;;;;;;;;;;;1.99;100.00;100822.72;5092309;28;19932;-72
2021/04/09 05:37:34;;;;;;;;;;;;;;;2.29;100.00;100808.91;5093228;28;19928;-71
2021/04/09 05:40:00;;;;;;;;;;;;;;;2.53;100.00;100805.19;5092539;28;19928;-71
2021/04/09 05:42:26;;;;;;;;;;;;;;;2.80;100.00;100811.03;5079371;28;19967;-71
2021/04/09 05:44:52;;;;;;;;;;;;;;;3.09;100.00;100812.34;5091043;28;19930;-71
2021/04/09 05:47:18;;;;;;;;;;;;;;;3.35;100.00;100810.16;5093231;28;20005;-72
2021/04/09 05:49:45;;;;;;;;;;;;;;;3.61;100.00;100816.06;5092673;28;20016;-71
2021/04/09 05:52:10;;;;;;;;;;;;;;;3.73;100.00;100806.50;5093161;28;20364;-72
2021/04/09 05:54:39;;;;;;;;;;;;;;;3.86;100.00;100804.91;5092831;28;20019;-71
2021/04/09 05:57:06;;;;;;;;;;;;;;;4.19;100.00;100804.94;5092720;28;19935;-72
2021/04/09 05:59:32;;;;;;;;;;;;;;;4.04;100.00;100804.91;5093607;28;19924;-72
2021/04/09 06:01:58;;;;;;;;;;;;;;;3.72;100.00;100797.56;5092510;28;19931;-71
2021/04/09 06:04:23;;;;;;;;;;;;;;;3.81;100.00;100798.94;5093838;28;20011;-71
2021/04/09 06:06:50;;;;;;;;;;;;;;;4.16;100.00;100796.19;5092824;28;19928;-72
2021/04/09 06:09:16;;;;;;;;;;;;;;;4.49;100.00;100798.00;5093352;28;19956;-72
2021/04/09 06:11:42;;;;;;;;;;;;;;;4.74;100.00;100786.75;5093135;28;20297;-72
2021/04/09 06:14:08;;;;;;;;;;;;;;;4.84;99.83;100793.38;5092741;28;19924;-71
2021/04/09 06:16:34;;;;;;;;;;;;;;;4.79;99.18;100792.75;5091536;28;19924;-71
2021/04/09 06:19:01;;;;;;;;;;;;;;;4.88;98.03;100799.44;5093215;28;20422;-71
2021/04/09 06:21:27;;;;;;;;;;;;;;;5.04;98.05;100791.38;5092778;28;19973;-71
2021/04/09 06:23:53;;;;;;;;;;;;;;;5.40;94.84;100783.94;5093175;28;19932;-72
2021/04/09 06:26:19;;;;;;;;;;;;;;;6.02;92.40;100783.88;5093013;28;19924;-71
2021/04/09 06:28:45;;;;;;;;;;;;;;;6.39;86.71;100788.78;5092134;28;20338;-71
2021/04/09 06:31:11;;;;;;;;;;;;;;;6.81;81.29;100782.50;5092615;28;19924;-71
2021/04/09 06:33:37;;;;;;;;;;;;;;;7.00;78.80;100793.00;5092233;28;20283;-71
2021/04/09 06:36:04;;;;;;;;;;;;;;;6.23;77.99;100796.97;5092360;28;20030;-71
2021/04/09 06:38:29;;;;;;;;;;;;;;;5.96;80.81;100800.38;5093021;28;19924;-71
2021/04/09 06:40:56;;;;;;;;;;;;;;;5.50;85.48;100782.44;5092081;28;19932;-72
2021/04/09 06:43:22;;;;;;;;;;;;;;;5.09;88.79;100789.31;5072554;28;20315;-71
2021/04/09 06:45:48;;;;;;;;;;;;;;;5.04;89.52;100794.06;5089713;28;19977;-71
2021/04/09 06:48:14;;;;;;;;;;;;;;;4.93;91.35;100799.19;5092680;28;19959;-71
2021/04/09 06:50:40;;;;;;;;;;;;;;;5.17;91.11;100792.41;5091739;28;19924;-71
2021/04/09 06:53:06;;;;;;;;;;;;;;;5.82;88.55;100785.91;5088685;28;20031;-71
2021/04/09 06:55:33;;;;;;;;;;;;;;;6.26;84.62;100776.09;5092119;28;19935;-71
2021/04/09 06:58:00;;;;;;;;;;;;;;;6.74;80.17;100767.69;5092468;28;19931;-72
2021/04/09 07:00:30;;;;;;;;;;;;;;;7.74;76.65;100778.22;5091483;28;19924;-71
2021/04/09 07:02:57;;;;;;;;;;;;;;;7.65;68.93;100763.50;5092406;28;19924;-71
2021/04/09 07:05:23;;;;;;;;;;;;;;;7.58;68.89;100765.75;5091309;28;19931;-71
2021/04/09 07:07:49;;;;;;;;;;;;;;;7.48;70.07;100754.72;5091722;28;20015;-71
2021/04/09 07:10:15;;;;;;;;;;;;;;;7.76;68.03;100760.91;5092491;28;20047;-71
2021/04/09 07:12:41;;;;;;;;;;;;;;;7.71;67.45;100747.75;5091425;28;19931;-72
2021/04/09 07:15:08;;;;;;;;;;;;;;;8.04;66.48;100748.19;5091714;28;19924;-72
2021/04/09 07:17:35;;;;;;;;;;;;;;;8.52;65.62;100748.44;5091231;28;19927;-72
2021/04/09 07:20:14;;;;;;;;;;;;;;;8.96;61.55;100750.69;5091906;28;19977;-71
2021/04/09 07:22:41;;;;;;;;;;;;;;;9.45;59.17;100748.84;5071200;28;19924;-70
2021/04/09 07:25:08;;;;;;;;;;;;;;;8.78;58.08;100750.19;5090964;28;19928;-71
2021/04/09 07:27:34;;;;;;;;;;;;;;;8.95;59.26;100746.25;5091692;28;19955;-72
2021/04/09 07:30:00;;;;;;;;;;;;;;;8.27;59.92;100733.06;5091736;28;19931;-71
2021/04/09 07:32:28;;;;;;;;;;;;;;;8.69;60.00;100736.34;5091540;28;20383;-71
2021/04/09 07:34:55;;;;;;;;;;;;;;;8.90;58.14;100729.47;5091567;28;20022;-71
2021/04/09 07:37:22;;;;;;;;;;;;;;;8.38;58.13;100735.84;5091001;28;19967;-71
2021/04/09 07:39:54;;;;;;;;;;;;;;;8.92;58.87;100735.66;5091234;28;19984;-71
2021/04/09 07:42:28;;;;;;;;;;;;;;;8.47;58.79;100730.78;5091988;28;19931;-71
2021/04/09 07:44:56;;;;;;;;;;;;;;;8.85;58.52;100735.25;5091080;28;19970;-71
2021/04/09 07:47:25;;;;;;;;;;;;;;;9.13;58.09;100719.66;5091359;28;19924;-71
2021/04/09 07:49:59;;;;;;;;;;;;;;;9.62;56.64;100715.00;5072913;28;19924;-71
2021/04/09 07:52:26;;;;;;;;;;;;;;;9.62;56.75;100715.91;5091578;28;19932;-72
2021/04/09 07:54:51;;;;;;;;;;;;;;;10.08;54.82;100705.13;5090913;28;19924;-71
2021/04/09 07:57:27;;;;;;;;;;;;;;;10.76;53.52;100706.00;5090139;28;20297;-72
2021/04/09 07:59:52;;;;;;;;;;;;;;;9.82;54.50;100710.75;5091004;28;19932;-71
2021/04/09 08:02:37;;;;;;;;;;;;;;;9.79;55.57;100708.28;5091299;28;20392;-72
2021/04/09 08:05:04;;;;;;;;;;;;;;;10.02;54.21;100712.78;5090830;28;19932;-72
2021/04/09 08:07:34;;;;;;;;;;;;;;;9.44;55.25;100711.91;5091292;28;19935;-72
2021/04/09 08:10:00;;;;;;;;;;;;;;;9.84;54.50;100715.06;5090920;28;19924;-71
2021/04/09 08:12:26;;;;;;;;;;;;;;;10.50;53.98;100705.41;5091229;28;19954;-72
2021/04/09 08:14:52;;;;;;;;;;;;;;;11.10;53.36;100703.16;5090444;28;20023;-71
2021/04/09 08:17:19;;;;;;;;;;;;;;;11.10;50.61;100705.88;5090844;28;20357;-71
2021/04/09 08:19:46;;;;;;;;;;;;;;;11.29;51.35;100693.47;5090778;28;19924;-72
2021/04/09 08:22:13;;;;;;;;;;;;;;;11.46;50.43;100687.44;5088883;28;19930;-72
2021/04/09 08:24:39;;;;;;;;;;;;;;;11.30;49.72;100692.47;5089028;28;20042;-71
2021/04/09 08:27:05;;;;;;;;;;;;;;;11.44;49.82;100684.03;5072089;28;19924;-72
2021/04/09 08:29:32;;;;;;;;;;;;;;;11.91;49.81;100690.94;5090605;28;20042;-72
2021/04/09 08:31:58;;;;;;;;;;;;;;;11.96;48.03;100677.78;5090417;28;19928;-71
2021/04/09 08:34:24;;;;;;;;;;;;;;;11.89;48.30;100683.75;5089917;28;19938;-72
2021/04/09 08:36:51;;;;;;;;;;;;;;;12.29;46.80;100687.53;5098648;28;20347;-71
2021/04/09 08:39:18;;;;;;;;;;;;;;;12.42;47.21;100683.75;5089812;28;19938;-72
2021/04/09 08:41:45;;;;;;;;;;;;;;;12.19;45.75;100676.63;5090479;28;19973;-71
2021/04/09 08:44:12;;;;;;;;;;;;;;;12.48;45.50;100675.88;5090486;28;19939;-71
2021/04/09 08:46:38;;;;;;;;;;;;;;;12.47;45.82;100682.31;5089744;28;19924;-71
2021/04/09 08:49:04;;;;;;;;;;;;;;;11.96;46.25;100673.22;5072716;28;20026;-71
2021/04/09 08:51:30;;;;;;;;;;;;;;;11.49;47.55;100678.19;5089720;28;19928;-71
2021/04/09 08:54:16;;;;;;;;;;;;;;;11.10;47.97;100670.56;5090051;28;19928;-71
2021/04/09 08:56:42;;;;;;;;;;;;;;;11.20;48.23;100660.66;5066998;28;19970;-71
2021/04/09 08:59:08;;;;;;;;;;;;;;;11.14;49.04;100666.59;5090500;28;19932;-72
2021/04/09 09:01:34;;;;;;;;;;;;;;;11.38;48.50;100679.09;5090388;28;20303;-72
2021/04/09 09:04:15;;;;;;;;;;;;;;;11.67;47.99;100667.59;5086907;28;19947;-71
2021/04/09 09:06:41;;;;;;;;;;;;;;;12.10;47.23;100663.84;5050650;28;20303;-71
2021/04/09 09:09:07;;;;;;;;;;;;;;;12.36;46.20;100666.09;5092992;28;20399;-71
2021/04/09 09:11:53;;;;;;;;;;;;;;;12.86;45.68;100662.50;5094097;28;19935;-71
2021/04/09 09:14:37;;;;;;;;;;;;;;;12.99;45.29;100660.34;5094580;28;19932;-71
2021/04/09 09:17:22;;;;;;;;;;;;;;;12.62;45.50;100662.88;5093829;28;19934;-72
2021/04/09 09:19:48;;;;;;;;;;;;;;;11.88;46.30;100660.25;5094411;28;19924;-71
2021/04/09 09:22:16;;;;;;;;;;;;;;;12.14;47.49;100659.84;5095198;28;19985;-71
2021/04/09 09:24:56;;;;;;;;;;;;;;;12.23;46.36;100656.28;5094134;28;20311;-72
2021/04/09 09:27:43;;;;;;;;;;;;;;;12.54;45.76;100655.41;5093295;28;19989;-71
2021/04/09 09:30:24;;;;;;;;;;;;;;;12.28;45.38;100655.91;5095089;28;20159;-72
2021/04/09 09:33:10;;;;;;;;;;;;;;;12.01;45.78;100645.59;5110401;28;19938;-72
2021/04/09 09:35:54;;;;;;;;;;;;;;;12.25;45.57;100658.88;5093818;28;20394;-71
2021/04/09 09:38:35;;;;;;;;;;;;;;;12.10;45.58;100650.22;5109648;28;19924;-71
2021/04/09 09:41:01;;;;;;;;;;;;;;;12.25;45.42;100649.88;5092790;28;20376;-71
2021/04/09 09:43:31;;;;;;;;;;;;;;;12.80;46.26;100649.44;5075266;28;19934;-71
2021/04/09 09:45:56;;;;;;;;;;;;;;;12.42;45.37;100632.88;5093106;28;20658;-71
2021/04/09 09:48:22;;;;;;;;;;;;;;;12.38;46.29;100635.00;5093359;28;19943;-70
2021/04/09 09:50:48;;;;;;;;;;;;;;;12.19;46.58;100624.91;5074899;28;19951;-71
2021/04/09 09:53:14;;;;;;;;;;;;;;;12.24;46.44;100627.25;5093356;28;19931;-71
2021/04/09 09:55:41;;;;;;;;;;;;;;;12.41;47.33;100616.69;5092926;28;20444;-70
2021/04/09 09:58:10;;;;;;;;;;;;;;;12.33;45.82;100610.09;5093862;28;20030;-71
2021/04/09 10:00:37;;;;;;;;;;;;;;;12.34;45.69;100614.50;5093702;28;19954;-71
2021/04/09 10:03:10;;;;;;;;;;;;;;;11.90;47.16;100611.16;5074677;28;20026;-70
2021/04/09 10:05:36;;;;;;;;;;;;;;;12.75;45.67;100600.84;5093191;28;20399;-71
2021/04/09 10:08:02;;;;;;;;;;;;;;;13.36;44.47;100601.56;5075157;28;19960;-70
2021/04/09 10:10:34;;;;;;;;;;;;;;;13.25;43.82;100596.25;5073841;28;19924;-71
2021/04/09 10:13:12;;;;;;;;;;;;;;;13.69;44.77;100597.47;5093232;28;19928;-70
2021/04/09 10:15:39;;;;;;;;;;;;;;;14.50;42.48;100601.41;5084657;28;20338;-70
2021/04/09 10:18:05;;;;;;;;;;;;;;;14.31;42.38;100596.94;5074660;28;19978;-71
2021/04/09 10:20:31;;;;;;;;;;;;;;;14.04;42.09;100586.84;5092213;28;19924;-70
2021/04/09 10:22:56;;;;;;;;;;;;;;;14.10;42.46;100582.69;5092849;28;20256;-70
2021/04/09 10:25:27;;;;;;;;;;;;;;;14.68;41.27;100574.13;5092752;28;20011;-70
2021/04/09 10:27:53;;;;;;;;;;;;;;;14.84;41.92;100572.59;5092233;28;19932;-71
2021/04/09 10:30:24;;;;;;;;;;;;;;;15.22;41.21;100578.75;5092791;28;19974;-70
2021/04/09 10:32:52;;;;;;;;;;;;;;;14.75;40.62;100571.63;5092827;28;19924;-71
2021/04/09 10:35:20;;;;;;;;;;;;;;;14.90;42.37;100567.34;5092643;28;19924;-71
2021/04/09 10:37:46;;;;;;;;;;;;;;;14.60;40.19;100568.56;5090365;28;19970;-70
2021/04/09 10:40:12;;;;;;;;;;;;;;;14.05;41.52;100577.66;5091959;28;20342;-70
2021/04/09 10:42:38;;;;;;;;;;;;;;;13.78;42.54;100576.63;5091144;28;20391;-71
2021/04/09 10:45:16;;;;;;;;;;;;;;;13.55;43.36;100568.81;5056873;28;19924;-71
2021/04/09 10:47:42;;;;;;;;;;;;;;;12.98;44.18;100582.34;5092780;28;19924;-70
2021/04/09 10:50:09;;;;;;;;;;;;;;;13.03;44.79;100569.16;5092812;28;19924;-70
2021/04/09 10:52:35;;;;;;;;;;;;;;;12.93;45.18;100589.22;5092681;28;19928;-70
2021/04/09 10:55:02;;;;;;;;;;;;;;;13.27;44.75;100572.41;5091747;28;19931;-70
2021/04/09 10:57:34;;;;;;;;;;;;;;;13.46;43.91;100575.16;5092505;28;20233;-71
2021/04/09 11:00:01;;;;;;;;;;;;;;;13.15;44.64;100572.59;5092150;28;19935;-71
2021/04/09 11:02:27;;;;;;;;;;;;;;;13.54;43.50;100556.16;5092501;28;19927;-70
2021/04/09 11:04:54;;;;;;;;;;;;;;;13.59;42.93;100553.00;5091177;28;19975;-70
2021/04/09 11:07:21;;;;;;;;;;;;;;;14.35;43.69;100561.97;5087670;28;19924;-72
2021/04/09 11:09:48;;;;;;;;;;;;;;;14.41;42.19;100555.91;5091694;28;20284;-71
2021/04/09 11:12:17;;;;;;;;;;;;;;;13.76;42.06;100547.78;5091464;28;19977;-71
2021/04/09 11:14:43;;;;;;;;;;;;;;;13.93;43.02;100554.31;5088340;28;19924;-71
2021/04/09 11:17:10;;;;;;;;;;;;;;;13.18;44.22;100544.19;5091262;28;20445;-71
2021/04/09 11:19:37;;;;;;;;;;;;;;;13.85;44.25;100552.34;5085072;28;20391;-70
2021/04/09 11:22:03;;;;;;;;;;;;;;;14.22;44.06;100554.16;5090149;28;19977;-71
2021/04/09 11:24:31;;;;;;;;;;;;;;;14.15;42.86;100537.53;5081817;28;20446;-71
2021/04/09 11:26:58;;;;;;;;;;;;;;;14.14;43.23;100535.81;5090494;28;19928;-70
2021/04/09 11:29:26;;;;;;;;;;;;;;;14.68;42.94;100522.22;5089519;28;19924;-71
2021/04/09 11:32:05;;;;;;;;;;;;;;;14.63;42.32;100523.69;5072618;28;19924;-71
2021/04/09 11:34:34;;;;;;;;;;;;;;;14.52;41.60;100528.38;5072791;28;19978;-71
2021/04/09 11:37:00;;;;;;;;;;;;;;;13.83;42.60;100510.69;5089081;28;19928;-71
2021/04/09 11:39:25;;;;;;;;;;;;;;;14.15;43.44;100509.38;5064352;28;20430;-71
2021/04/09 11:41:56;;;;;;;;;;;;;;;14.67;42.50;100511.47;5083340;28;19977;-71
2021/04/09 11:44:32;;;;;;;;;;;;;;;14.72;41.75;100522.78;5087819;28;19930;-71
2021/04/09 11:47:27;;;;;;;;;;;;;;;14.94;41.89;100506.91;5090650;28;19935;-71
2021/04/09 11:50:06;;;;;;;;;;;;;;;14.80;42.20;100514.66;5035100;28;20028;-71
2021/04/09 11:52:47;;;;;;;;;;;;;;;15.02;41.89;100512.47;5075145;28;19929;-71
2021/04/09 11:55:14;;;;;;;;;;;;;;;14.94;42.25;100505.06;5072091;28;19932;-71
2021/04/09 11:57:40;;;;;;;;;;;;;;;15.31;40.94;100511.28;5090532;28;20243;-71
2021/04/09 12:00:16;;;;;;;;;;;;;;;15.33;41.26;100506.53;5071477;28;19924;-71
2021/04/09 12:02:48;;;;;;;;;;;;;;;14.23;42.77;100510.31;5090226;28;21544;-71
2021/04/09 12:05:17;;;;;;;;;;;;;;;13.90;43.10;100501.75;5089067;28;20337;-72
2021/04/09 12:07:43;;;;;;;;;;;;;;;14.42;43.10;100504.88;5084584;28;19924;-71
2021/04/09 12:10:09;;;;;;;;;;;;;;;14.55;43.18;100499.88;5085459;28;19931;-71
2021/04/09 12:12:35;;;;;;;;;;;;;;;14.66;42.37;100487.91;5091163;28;20391;-71
2021/04/09 12:15:02;;;;;;;;;;;;;;;14.87;42.00;100502.09;5090906;28;19935;-69
2021/04/09 12:17:28;;;;;;;;;;;;;;;15.07;41.49;100497.28;5090333;28;20275;-71
2021/04/09 12:19:54;;;;;;;;;;;;;;;15.28;41.82;100479.66;5090263;28;19931;-70
2021/04/09 12:22:21;;;;;;;;;;;;;;;15.53;40.33;100488.00;5090661;28;19924;-70
2021/04/09 12:24:46;;;;;;;;;;;;;;;15.47;40.36;100486.75;5076186;28;20391;-70
2021/04/09 12:27:13;;;;;;;;;;;;;;;15.89;41.04;100483.22;5090560;28;19924;-70
2021/04/09 12:29:39;;;;;;;;;;;;;;;15.74;40.74;100495.81;5072605;28;19924;-70
2021/04/09 12:32:07;;;;;;;;;;;;;;;15.48;40.67;100495.84;5090749;28;19924;-69
2021/04/09 12:34:33;;;;;;;;;;;;;;;14.87;40.74;100495.75;5090786;28;19924;-70
2021/04/09 12:36:59;;;;;;;;;;;;;;;14.92;41.59;100495.28;5089605;28;19928;-70
2021/04/09 12:39:25;;;;;;;;;;;;;;;15.35;40.97;100496.25;5090588;28;20196;-70
2021/04/09 12:41:51;;;;;;;;;;;;;;;15.12;41.54;100491.34;5090806;28;19924;-70